Terminal Aerodrome Forecast
Issued by NWS Mt. Holly, NJ

Home | Current Version | Previous Version | Text Only | Print | Product List | Glossary On
Versions: 1 2 3 4 5 6 7 8 9 10 11 12 13 14 15 16 17 18 19 20 21 22 23 24 25 26 27 28 29 30 31 32 33 34 35 36 37 38 39 40 41 42 43 44 45 46 47 48 49 50
183
FTUS41 KPHI 260504 AAB
TAFABE
TAF AMD
KABE 260504Z 2605/2624 VRB03KT 5SM BR BKN015 OVC025
      TEMPO 2605/2607 2SM RA
     FM260900 00000KT P6SM BKN015
     FM261400 VRB03KT P6SM BKN035
     FM261700 VRB03KT P6SM SCT045=

USA.gov is the U.S. government's official web portal to all federal, state and local government web resources and services.